Time;durP1;ratioP1;P1;durP2;ratioP2;P2;SDS_P1;SDS_P2;PMS_P1;PMS_P2;Temp;Humidity;BMP_temperature;BMP_pressure;BME280_temperature;BME280_humidity;BME280_pressure;Samples;Min_cycle;Max_cycle;Signal;HPM_P1;HPM_P2
2023/04/11 00:01:31;;;;;;;13.40;5.28;;;;;;;9.58;100.00;100816.50;5006635;28;20496;-61
2023/04/11 00:03:56;;;;;;;12.40;4.60;;;;;;;9.50;100.00;100809.38;5006997;28;20030;-61
2023/04/11 00:06:23;;;;;;;15.38;4.60;;;;;;;9.47;100.00;100800.78;5006725;28;20532;-61
2023/04/11 00:08:48;;;;;;;11.93;4.18;;;;;;;9.51;100.00;100804.75;5007606;28;20040;-61
2023/04/11 00:11:14;;;;;;;15.80;4.78;;;;;;;9.41;100.00;100799.78;5005933;28;20021;-61
2023/04/11 00:13:44;;;;;;;16.08;4.50;;;;;;;9.28;100.00;100795.25;5006480;28;20064;-62
2023/04/11 00:16:09;;;;;;;15.55;4.53;;;;;;;9.33;100.00;100809.13;5006285;28;20030;-61
2023/04/11 00:18:38;;;;;;;13.27;5.00;;;;;;;9.27;100.00;100799.03;5006964;28;20036;-61
2023/04/11 00:21:04;;;;;;;14.52;4.50;;;;;;;9.19;100.00;100802.06;5008386;28;20121;-62
2023/04/11 00:23:29;;;;;;;13.23;4.68;;;;;;;9.12;100.00;100806.75;5006991;28;20029;-61
2023/04/11 00:25:54;;;;;;;15.20;5.10;;;;;;;9.09;100.00;100809.94;5007991;28;20021;-61
2023/04/11 00:28:20;;;;;;;14.13;5.25;;;;;;;9.15;100.00;100820.00;5006391;28;20131;-61
2023/04/11 00:30:45;;;;;;;15.65;5.40;;;;;;;9.10;100.00;100819.84;5006932;28;20491;-61
2023/04/11 00:33:10;;;;;;;12.80;3.95;;;;;;;9.08;100.00;100811.00;5007204;28;20026;-61
2023/04/11 00:35:38;;;;;;;15.13;4.78;;;;;;;8.91;100.00;100810.69;5007655;28;20052;-61
2023/04/11 00:38:03;;;;;;;16.47;5.60;;;;;;;8.87;100.00;100808.59;5003562;28;20085;-61
2023/04/11 00:40:28;;;;;;;16.00;4.63;;;;;;;8.89;100.00;100817.47;5005737;28;20285;-60
2023/04/11 00:42:55;;;;;;;14.20;4.85;;;;;;;8.77;100.00;100820.91;5006796;28;20045;-61
2023/04/11 00:45:21;;;;;;;14.68;5.03;;;;;;;8.75;100.00;100820.25;5005980;28;20092;-62
2023/04/11 00:47:46;;;;;;;16.38;5.03;;;;;;;8.68;100.00;100815.91;5006329;28;20053;-61
2023/04/11 00:50:12;;;;;;;14.07;5.03;;;;;;;8.69;100.00;100823.88;5007119;28;20034;-60
2023/04/11 00:52:38;;;;;;;17.35;5.55;;;;;;;8.71;100.00;100827.22;5004816;28;20049;-63
2023/04/11 00:55:06;;;;;;;17.52;5.47;;;;;;;8.67;100.00;100822.41;5007202;28;20095;-61
2023/04/11 00:57:32;;;;;;;15.60;5.00;;;;;;;8.76;100.00;100816.47;5006710;28;20041;-61
2023/04/11 00:59:57;;;;;;;15.68;5.97;;;;;;;8.69;100.00;100814.84;5006338;28;20030;-61
2023/04/11 01:02:26;;;;;;;17.10;5.63;;;;;;;8.78;100.00;100811.63;5006060;28;20030;-61
2023/04/11 01:04:52;;;;;;;15.40;5.32;;;;;;;8.78;100.00;100819.84;5005753;28;20095;-61
2023/04/11 01:07:19;;;;;;;18.50;5.45;;;;;;;8.71;100.00;100809.97;5004653;28;20025;-61
2023/04/11 01:09:45;;;;;;;15.70;4.40;;;;;;;8.66;100.00;100821.56;5006156;28;20389;-61
2023/04/11 01:12:13;;;;;;;17.42;5.35;;;;;;;8.71;100.00;100813.53;5006944;28;20033;-62
2023/04/11 01:14:40;;;;;;;12.80;4.30;;;;;;;8.76;100.00;100810.97;5006489;28;20026;-60
2023/04/11 01:17:06;;;;;;;13.57;5.43;;;;;;;8.67;100.00;100812.31;5005903;28;20026;-61
2023/04/11 01:19:32;;;;;;;18.33;5.10;;;;;;;8.68;100.00;100813.16;5002910;28;20117;-61
2023/04/11 01:22:00;;;;;;;15.25;5.45;;;;;;;8.62;100.00;100814.00;5005824;28;20117;-61
2023/04/11 01:24:26;;;;;;;16.40;5.40;;;;;;;8.66;100.00;100815.25;5006531;28;20401;-60
2023/04/11 01:26:51;;;;;;;18.73;5.72;;;;;;;8.69;100.00;100809.34;5006768;28;20064;-61
2023/04/11 01:29:17;;;;;;;17.80;5.03;;;;;;;8.80;100.00;100812.22;5009350;28;20494;-61
2023/04/11 01:31:42;;;;;;;15.63;5.63;;;;;;;8.68;100.00;100805.78;5011470;28;20022;-61
2023/04/11 01:34:11;;;;;;;15.63;5.30;;;;;;;8.67;100.00;100814.19;5009927;28;20448;-61
2023/04/11 01:36:37;;;;;;;18.50;5.13;;;;;;;8.57;100.00;100814.69;5011191;28;20117;-62
2023/04/11 01:39:03;;;;;;;18.13;6.15;;;;;;;8.57;100.00;100822.91;5010902;28;20376;-61
2023/04/11 01:41:29;;;;;;;14.93;4.78;;;;;;;8.43;100.00;100815.81;5008944;28;20523;-61
2023/04/11 01:43:55;;;;;;;15.32;4.75;;;;;;;8.39;100.00;100820.03;5009732;28;20028;-61
2023/04/11 01:46:22;;;;;;;14.98;4.88;;;;;;;8.47;100.00;100833.47;5009741;28;20117;-61
2023/04/11 01:48:49;;;;;;;15.68;5.20;;;;;;;8.38;100.00;100829.31;5009861;28;20038;-61
2023/04/11 01:51:14;;;;;;;18.05;5.38;;;;;;;8.30;100.00;100833.06;5008889;28;20030;-61
2023/04/11 01:53:40;;;;;;;14.52;5.00;;;;;;;8.33;100.00;100836.22;5008692;28;20029;-61
2023/04/11 01:56:06;;;;;;;16.42;5.30;;;;;;;8.33;100.00;100840.88;5010132;28;20038;-61
2023/04/11 01:58:31;;;;;;;15.05;4.90;;;;;;;8.21;100.00;100842.56;5009442;28;20030;-61
2023/04/11 02:00:56;;;;;;;13.75;4.80;;;;;;;8.22;100.00;100847.00;5009250;28;20033;-60
2023/04/11 02:03:21;;;;;;;16.35;5.07;;;;;;;8.19;100.00;100855.63;5011587;28;20124;-61
2023/04/11 02:05:47;;;;;;;15.77;5.00;;;;;;;8.21;100.00;100848.91;5009212;28;20038;-61
2023/04/11 02:08:12;;;;;;;17.48;4.80;;;;;;;8.24;100.00;100853.09;5009917;28;20038;-58
2023/04/11 02:10:37;;;;;;;15.27;4.70;;;;;;;8.26;100.00;100857.31;5010574;28;20078;-61
2023/04/11 02:13:03;;;;;;;19.73;5.60;;;;;;;8.26;100.00;100861.91;5009355;28;20612;-61
2023/04/11 02:15:28;;;;;;;15.00;4.88;;;;;;;8.29;100.00;100856.88;5009816;28;20621;-61
2023/04/11 02:17:53;;;;;;;15.38;4.60;;;;;;;8.32;100.00;100853.72;5007755;28;20061;-61
2023/04/11 02:20:22;;;;;;;14.15;4.53;;;;;;;8.29;100.00;100856.03;5009668;28;20034;-60
2023/04/11 02:22:48;;;;;;;15.73;4.70;;;;;;;8.30;100.00;100860.44;5009924;28;20037;-61
2023/04/11 02:25:13;;;;;;;15.23;4.65;;;;;;;8.32;100.00;100853.72;5008689;28;20026;-58
2023/04/11 02:27:39;;;;;;;17.40;4.82;;;;;;;8.27;100.00;100861.72;5009372;28;20025;-58
2023/04/11 02:30:05;;;;;;;14.27;4.35;;;;;;;8.29;100.00;100862.34;5009390;28;20030;-58
2023/04/11 02:32:34;;;;;;;15.38;4.15;;;;;;;8.45;100.00;100858.31;5008108;28;20121;-59
2023/04/11 02:35:01;;;;;;;12.85;4.30;;;;;;;8.38;100.00;100862.16;5009428;28;20033;-59
2023/04/11 02:37:26;;;;;;;17.42;4.38;;;;;;;8.25;100.00;100862.97;5065006;22;20105;-59
2023/04/11 02:39:54;;;;;;;15.55;4.55;;;;;;;8.17;100.00;100868.69;5037847;28;20052;-59
2023/04/11 02:42:19;;;;;;;12.90;4.00;;;;;;;8.20;100.00;100863.63;5025765;28;20118;-59
2023/04/11 02:44:44;;;;;;;14.27;3.92;;;;;;;8.17;100.00;100863.22;5036973;28;20037;-59
2023/04/11 02:47:10;;;;;;;14.70;4.25;;;;;;;8.20;100.00;100862.78;5043446;28;20021;-57
2023/04/11 02:49:35;;;;;;;17.05;4.15;;;;;;;8.06;100.00;100865.56;5045222;28;20060;-58
2023/04/11 02:52:00;;;;;;;16.25;4.45;;;;;;;8.03;100.00;100867.88;5045839;28;20047;-59
2023/04/11 02:54:25;;;;;;;15.45;4.10;;;;;;;7.95;100.00;100871.66;5046599;28;20032;-59
2023/04/11 02:56:51;;;;;;;12.05;3.63;;;;;;;7.96;100.00;100872.53;5045146;28;20074;-58
2023/04/11 02:59:17;;;;;;;13.00;3.47;;;;;;;7.90;100.00;100874.19;5036871;28;20028;-58
2023/04/11 03:01:44;;;;;;;15.10;4.03;;;;;;;7.88;100.00;100887.25;5030464;28;20025;-59
2023/04/11 03:04:09;;;;;;;12.13;3.80;;;;;;;7.80;100.00;100887.47;5047285;28;20033;-58
2023/04/11 03:06:35;;;;;;;14.02;3.55;;;;;;;7.77;100.00;100882.44;5048877;28;20478;-59
2023/04/11 03:09:00;;;;;;;13.65;3.80;;;;;;;7.71;100.00;100883.28;5027805;28;20044;-59
2023/04/11 03:11:25;;;;;;;11.95;3.28;;;;;;;7.68;100.00;100884.53;5045924;28;20033;-58
2023/04/11 03:13:50;;;;;;;11.38;3.17;;;;;;;7.65;100.00;100884.94;5044696;28;20471;-58
2023/04/11 03:16:16;;;;;;;12.63;3.35;;;;;;;7.65;100.00;100882.22;5032111;28;20026;-59
2023/04/11 03:18:41;;;;;;;10.15;3.20;;;;;;;7.72;100.00;100883.06;5027239;28;20052;-59
2023/04/11 03:21:09;;;;;;;10.70;3.00;;;;;;;7.70;100.00;100890.63;5031199;28;20029;-59
2023/04/11 03:23:34;;;;;;;12.60;3.60;;;;;;;7.79;100.00;100897.56;5046958;28;20124;-59
2023/04/11 03:25:59;;;;;;;12.82;3.53;;;;;;;7.83;100.00;100892.53;5046926;28;20802;-58
2023/04/11 03:28:25;;;;;;;12.02;3.30;;;;;;;7.82;100.00;100903.69;5031283;28;20037;-58
2023/04/11 03:30:50;;;;;;;12.02;3.40;;;;;;;7.89;100.00;100899.88;5044017;28;20033;-58
2023/04/11 03:33:15;;;;;;;11.38;2.97;;;;;;;7.96;100.00;100910.81;5047954;28;20063;-59
2023/04/11 03:35:40;;;;;;;11.07;3.10;;;;;;;7.97;100.00;100920.72;5029474;28;20029;-58
2023/04/11 03:38:06;;;;;;;12.70;3.20;;;;;;;8.11;100.00;100922.38;5035225;28;20049;-59
2023/04/11 03:40:31;;;;;;;11.35;3.15;;;;;;;8.03;100.00;100914.38;5045387;28;20149;-59
2023/04/11 03:42:56;;;;;;;7.88;2.17;;;;;;;8.07;100.00;100918.38;5046962;28;20380;-58
2023/04/11 03:45:22;;;;;;;9.65;2.58;;;;;;;8.03;100.00;100914.38;5046525;28;20025;-58
2023/04/11 03:47:47;;;;;;;10.27;2.72;;;;;;;8.11;100.00;100916.91;5036706;28;20484;-58
2023/04/11 03:50:12;;;;;;;10.95;2.72;;;;;;;8.04;100.00;100911.44;5033548;28;20029;-58
2023/04/11 03:52:38;;;;;;;13.65;4.15;;;;;;;8.02;100.00;100913.53;5027823;28;20456;-59
2023/04/11 03:55:04;;;;;;;9.15;2.63;;;;;;;7.99;100.00;100918.59;5026634;28;20038;-59
2023/04/11 03:57:31;;;;;;;10.57;2.47;;;;;;;8.02;100.00;100924.50;5028185;28;20038;-59
2023/04/11 03:59:56;;;;;;;8.77;2.85;;;;;;;8.06;100.00;100919.44;5047347;28;20024;-59
2023/04/11 04:02:21;;;;;;;10.35;2.35;;;;;;;8.06;100.00;100925.75;5028685;28;20021;-59
2023/04/11 04:04:53;;;;;;;7.55;2.28;;;;;;;8.01;100.00;100927.44;5046724;28;20066;-58
2023/04/11 04:07:20;;;;;;;9.45;3.13;;;;;;;8.07;100.00;100934.78;5038747;28;20026;-58
2023/04/11 04:09:46;;;;;;;7.70;2.30;;;;;;;8.14;100.00;100930.16;5036511;28;20040;-59
2023/04/11 04:12:11;;;;;;;8.40;2.20;;;;;;;8.17;100.00;100929.72;5044376;28;20032;-58
2023/04/11 04:14:36;;;;;;;8.65;2.63;;;;;;;8.06;100.00;100933.13;5043083;28;20030;-58
2023/04/11 04:17:02;;;;;;;10.43;2.85;;;;;;;7.99;100.00;100930.38;5027811;28;20064;-58
2023/04/11 04:19:27;;;;;;;10.20;2.40;;;;;;;7.91;100.00;100927.88;5032465;28;20090;-58
2023/04/11 04:21:52;;;;;;;8.75;2.60;;;;;;;7.89;100.00;100937.31;5047738;28;20033;-58
2023/04/11 04:24:18;;;;;;;8.40;2.53;;;;;;;7.77;100.00;100939.84;5045869;28;20029;-58
2023/04/11 04:26:44;;;;;;;8.63;2.65;;;;;;;7.78;100.00;100947.00;5041976;28;20034;-58
2023/04/11 04:29:11;;;;;;;10.38;2.53;;;;;;;7.71;100.00;100944.28;5031296;28;20070;-60
2023/04/11 04:31:37;;;;;;;8.30;2.70;;;;;;;7.71;100.00;100952.47;5027645;28;20112;-59
2023/04/11 04:34:07;;;;;;;7.97;2.67;;;;;;;7.62;100.00;100948.25;5026978;28;20535;-59
2023/04/11 04:36:45;;;;;;;9.82;2.70;;;;;;;7.62;100.00;100948.25;5038945;28;20029;-58
2023/04/11 04:39:16;;;;;;;12.38;2.92;;;;;;;7.60;100.00;100961.28;5030138;28;20041;-58
2023/04/11 04:41:42;;;;;;;10.35;2.63;;;;;;;7.51;100.00;100960.66;5040431;28;20216;-57
2023/04/11 04:44:08;;;;;;;8.70;3.22;;;;;;;7.52;100.00;100967.78;5042094;28;20035;-59
2023/04/11 04:46:35;;;;;;;7.28;2.53;;;;;;;7.46;100.00;100959.59;5042747;28;20039;-58
2023/04/11 04:49:05;;;;;;;11.20;3.22;;;;;;;7.41;100.00;100968.41;5026493;28;20029;-58
2023/04/11 04:51:30;;;;;;;10.50;3.05;;;;;;;7.36;100.00;100970.91;5027020;28;20060;-58
2023/04/11 04:53:58;;;;;;;7.85;2.22;;;;;;;7.34;100.00;100973.00;5026840;28;20056;-58
2023/04/11 04:56:27;;;;;;;9.05;2.63;;;;;;;7.45;100.00;100983.34;5025179;28;20033;-58
2023/04/11 04:58:53;;;;;;;8.18;2.63;;;;;;;7.33;100.00;100993.19;5026496;28;20025;-58
2023/04/11 05:01:19;;;;;;;8.98;2.83;;;;;;;7.31;100.00;100992.56;5034869;28;20087;-58
2023/04/11 05:03:49;;;;;;;8.15;2.42;;;;;;;7.27;100.00;100997.56;5027997;28;20376;-58
2023/04/11 05:06:14;;;;;;;9.80;2.70;;;;;;;7.22;100.00;101007.44;5025584;28;20040;-58
2023/04/11 05:08:40;;;;;;;10.73;2.45;;;;;;;7.21;100.00;101009.34;5022563;28;20038;-58
2023/04/11 05:11:05;;;;;;;9.10;2.75;;;;;;;7.26;100.00;101006.81;5026287;28;20034;-58
2023/04/11 05:13:32;;;;;;;9.43;2.55;;;;;;;7.25;100.00;101013.34;5032486;28;20030;-58
2023/04/11 05:15:57;;;;;;;9.45;3.35;;;;;;;7.24;100.00;101008.91;5030494;28;20025;-56
2023/04/11 05:18:23;;;;;;;8.68;2.63;;;;;;;7.20;100.00;101012.28;5025808;28;20525;-59
2023/04/11 05:20:48;;;;;;;8.70;2.45;;;;;;;7.21;100.00;101017.53;5026654;28;20117;-58
2023/04/11 05:23:15;;;;;;;8.52;2.42;;;;;;;7.23;100.00;101023.63;5026021;28;20033;-58
2023/04/11 05:25:40;;;;;;;11.27;3.10;;;;;;;7.30;100.00;101031.84;5025359;28;20516;-59
2023/04/11 05:28:05;;;;;;;8.05;2.40;;;;;;;7.20;100.00;101023.19;5025297;28;20044;-58
2023/04/11 05:30:30;;;;;;;8.07;2.45;;;;;;;7.28;100.00;101023.00;5026392;28;20167;-59
2023/04/11 05:32:56;;;;;;;7.40;2.45;;;;;;;7.25;100.00;101031.63;5026284;28;20029;-58
2023/04/11 05:35:21;;;;;;;9.98;2.55;;;;;;;7.27;100.00;101030.34;5025217;28;20029;-58
2023/04/11 05:37:46;;;;;;;8.65;2.67;;;;;;;7.27;100.00;101034.97;5024912;28;20050;-59
2023/04/11 05:40:12;;;;;;;9.13;2.70;;;;;;;7.27;100.00;101034.97;5007391;28;20021;-58
2023/04/11 05:42:37;;;;;;;9.23;2.47;;;;;;;7.33;100.00;101042.34;5024757;28;20104;-58
2023/04/11 05:45:02;;;;;;;9.68;2.67;;;;;;;7.33;100.00;101050.56;5025375;28;20030;-59
2023/04/11 05:47:28;;;;;;;10.98;3.13;;;;;;;7.34;100.00;101052.22;5025296;28;20108;-58
2023/04/11 05:49:53;;;;;;;9.45;2.58;;;;;;;7.36;100.00;101062.97;5026370;28;20041;-58
2023/04/11 05:52:18;;;;;;;12.05;2.55;;;;;;;7.45;100.00;101061.72;5025705;28;20034;-61
2023/04/11 05:54:43;;;;;;;8.05;2.33;;;;;;;7.51;100.00;101059.03;5026380;28;20022;-57
2023/04/11 05:57:09;;;;;;;12.50;2.78;;;;;;;7.69;100.00;101058.44;5025294;28;20018;-58
2023/04/11 05:59:34;;;;;;;9.75;2.97;;;;;;;7.84;100.00;101071.94;5026227;28;20435;-59
2023/04/11 06:02:00;;;;;;;9.55;2.22;;;;;;;7.94;100.00;101077.00;5026119;28;20025;-58
2023/04/11 06:04:26;;;;;;;8.55;2.50;;;;;;;8.00;100.00;101067.97;5025928;28;20164;-58
2023/04/11 06:06:52;;;;;;;8.43;2.38;;;;;;;8.11;100.00;101078.31;5024051;28;20038;-57
2023/04/11 06:09:17;;;;;;;10.57;2.67;;;;;;;8.00;100.00;101077.00;5024307;28;20099;-58
2023/04/11 06:11:43;;;;;;;11.95;2.88;;;;;;;8.02;100.00;101082.28;5025419;28;20026;-58
2023/04/11 06:14:08;;;;;;;11.77;2.53;;;;;;;7.98;100.00;101089.22;5028290;28;20028;-58
2023/04/11 06:16:35;;;;;;;8.05;2.50;;;;;;;8.02;100.00;101087.75;5029662;28;20460;-58
2023/04/11 06:19:04;;;;;;;9.52;2.50;;;;;;;8.07;100.00;101080.59;5027857;28;20036;-58
2023/04/11 06:21:31;;;;;;;9.73;2.25;;;;;;;8.21;100.00;101083.34;5029636;28;20055;-58
2023/04/11 06:24:04;;;;;;;8.00;2.20;;;;;;;8.30;100.00;101093.88;5028253;28;20069;-57
2023/04/11 06:26:29;;;;;;;9.75;2.50;;;;;;;8.26;99.90;101094.50;5028018;28;20026;-58
2023/04/11 06:28:54;;;;;;;8.13;2.22;;;;;;;8.20;100.00;101087.97;5029305;28;20109;-59
2023/04/11 06:31:19;;;;;;;7.88;2.50;;;;;;;8.20;100.00;101089.88;5028692;28;20124;-58
2023/04/11 06:33:45;;;;;;;7.60;2.58;;;;;;;8.23;100.00;101090.31;5029673;28;20067;-59
2023/04/11 06:36:10;;;;;;;7.90;2.70;;;;;;;8.27;100.00;101104.41;5029710;28;20021;-58
2023/04/11 06:38:36;;;;;;;9.43;2.50;;;;;;;8.33;99.92;101095.38;5033228;28;20045;-59
2023/04/11 06:41:02;;;;;;;9.10;2.70;;;;;;;8.61;98.98;101095.16;5030486;28;20022;-58
2023/04/11 06:43:27;;;;;;;10.07;2.63;;;;;;;8.93;96.85;101093.44;5028768;28;20484;-58
2023/04/11 06:45:52;;;;;;;8.38;2.25;;;;;;;9.26;93.83;101092.50;5029418;28;20104;-58
2023/04/11 06:48:19;;;;;;;9.82;2.40;;;;;;;9.20;94.46;101094.22;5028634;28;20419;-59
2023/04/11 06:50:46;;;;;;;9.15;2.65;;;;;;;9.14;94.24;101099.72;5028714;28;20092;-58
2023/04/11 06:53:12;;;;;;;5.95;2.17;;;;;;;9.25;93.13;101088.94;5028578;28;20043;-58
2023/04/11 06:55:37;;;;;;;11.70;2.65;;;;;;;9.49;92.10;101087.38;5029434;28;20138;-58
2023/04/11 06:58:02;;;;;;;7.90;2.20;;;;;;;9.59;90.73;101098.72;5027209;28;20024;-57
2023/04/11 07:00:27;;;;;;;9.43;2.50;;;;;;;9.64;89.04;101105.44;5026074;28;20534;-59
2023/04/11 07:02:53;;;;;;;9.93;2.08;;;;;;;9.57;88.80;101103.56;5023469;28;20029;-57
2023/04/11 07:05:18;;;;;;;7.38;2.25;;;;;;;9.73;89.48;101102.25;5021756;28;20057;-59
2023/04/11 07:07:43;;;;;;;7.72;2.33;;;;;;;10.07;85.87;101105.59;5027450;28;20061;-59
2023/04/11 07:10:09;;;;;;;7.68;2.35;;;;;;;9.90;86.45;101113.53;5027703;28;20033;-58
2023/04/11 07:12:34;;;;;;;10.88;3.20;;;;;;;10.09;86.99;101122.72;5025543;28;20116;-59
2023/04/11 07:15:03;;;;;;;7.70;2.30;;;;;;;10.52;83.62;101116.50;5026330;28;20132;-58
2023/04/11 07:17:28;;;;;;;6.95;2.15;;;;;;;10.95;82.52;101118.44;5025513;28;20034;-59
2023/04/11 07:19:53;;;;;;;7.50;1.98;;;;;;;11.44;80.15;101123.81;5028608;28;20764;-59
2023/04/11 07:22:19;;;;;;;8.32;2.45;;;;;;;11.79;77.55;101120.41;5021632;28;20094;-59
2023/04/11 07:24:45;;;;;;;7.32;2.03;;;;;;;12.21;75.36;101117.72;5021529;28;20064;-59
2023/04/11 07:27:12;;;;;;;6.18;1.90;;;;;;;12.59;72.98;101127.53;5023685;28;20044;-59
2023/04/11 07:29:38;;;;;;;8.32;1.90;;;;;;;12.76;70.89;101131.25;5020535;28;20045;-59
2023/04/11 07:32:04;;;;;;;7.80;1.88;;;;;;;12.85;70.93;101129.00;5024654;28;20099;-59
2023/04/11 07:34:29;;;;;;;9.55;2.40;;;;;;;13.38;70.41;101128.91;5024123;28;20029;-59
2023/04/11 07:36:59;;;;;;;8.40;2.08;;;;;;;12.99;70.13;101144.22;5038827;28;20030;-59
2023/04/11 07:39:25;;;;;;;7.63;2.17;;;;;;;12.51;70.56;101147.16;5024608;28;20053;-58
2023/04/11 07:41:55;;;;;;;7.13;2.05;;;;;;;12.05;72.82;101144.00;5025275;28;20385;-59
2023/04/11 07:44:20;;;;;;;6.43;1.90;;;;;;;11.94;73.35;101156.66;5018095;28;20112;-58
2023/04/11 07:46:45;;;;;;;7.28;1.95;;;;;;;12.18;72.86;101154.03;5023418;28;20121;-57
2023/04/11 07:49:11;;;;;;;9.50;2.25;;;;;;;12.13;72.25;101148.38;5027252;28;20522;-59
2023/04/11 07:51:36;;;;;;;7.93;2.10;;;;;;;12.22;70.93;101152.47;5024281;28;20068;-59
2023/04/11 07:54:02;;;;;;;8.30;2.35;;;;;;;12.42;72.04;101141.16;5022051;28;20021;-59
2023/04/11 07:56:27;;;;;;;7.90;2.13;;;;;;;12.31;70.56;101144.69;5027401;28;20063;-58
2023/04/11 07:58:52;;;;;;;6.82;1.95;;;;;;;12.33;70.06;101148.91;5022824;28;20053;-59
2023/04/11 08:01:23;;;;;;;6.07;2.10;;;;;;;12.64;68.93;101152.47;5024166;28;20029;-59
2023/04/11 08:03:49;;;;;;;6.70;2.20;;;;;;;12.67;66.88;101157.47;5026100;28;20040;-59
2023/04/11 08:06:15;;;;;;;8.40;2.17;;;;;;;12.38;69.26;101168.34;5026304;28;20029;-59
2023/04/11 08:08:40;;;;;;;6.55;1.80;;;;;;;12.66;68.96;101172.34;5030497;28;20087;-58
2023/04/11 08:11:06;;;;;;;8.18;2.63;;;;;;;11.97;70.16;101171.88;5015012;28;20021;-59
2023/04/11 08:13:31;;;;;;;7.80;2.00;;;;;;;11.73;69.62;101189.31;5019283;28;20026;-59
2023/04/11 08:15:56;;;;;;;7.85;2.03;;;;;;;11.40;72.00;101180.38;5028054;28;20052;-60
2023/04/11 08:18:22;;;;;;;8.50;1.80;;;;;;;11.11;70.83;101175.59;5021553;28;20029;-59
2023/04/11 08:20:48;;;;;;;7.75;2.47;;;;;;;11.16;72.94;101178.50;5021721;28;20068;-60
2023/04/11 08:23:14;;;;;;;8.07;2.03;;;;;;;11.46;69.31;101197.88;5025310;28;20080;-60
2023/04/11 08:25:40;;;;;;;7.32;1.95;;;;;;;11.12;69.66;101191.84;5027591;28;20025;-60
2023/04/11 08:28:05;;;;;;;7.35;1.83;;;;;;;10.82;73.14;101191.69;5019135;28;20033;-59
2023/04/11 08:30:31;;;;;;;7.10;1.77;;;;;;;10.80;73.32;101199.31;5023540;28;20506;-59
2023/04/11 08:32:56;;;;;;;7.43;1.70;;;;;;;11.30;73.12;101203.94;5022851;28;20026;-59
2023/04/11 08:35:21;;;;;;;7.57;1.95;;;;;;;11.43;70.62;101209.31;5031275;28;20064;-60
2023/04/11 08:37:48;;;;;;;8.65;1.98;;;;;;;11.31;71.16;101200.16;5031628;28;20115;-59
2023/04/11 08:40:14;;;;;;;7.15;2.25;;;;;;;11.56;68.18;101211.09;5023683;28;20952;-58
2023/04/11 08:42:39;;;;;;;7.03;2.35;;;;;;;12.14;66.23;101200.44;5025964;28;20036;-58
2023/04/11 08:45:08;;;;;;;9.02;2.20;;;;;;;12.46;65.90;101214.81;5007371;28;20352;-59
2023/04/11 08:47:33;;;;;;;7.57;1.75;;;;;;;12.77;65.92;101212.88;5024875;28;20349;-59
2023/04/11 08:49:58;;;;;;;6.90;1.98;;;;;;;14.10;61.97;101203.00;5026485;28;20025;-57
2023/04/11 08:52:24;;;;;;;5.82;1.80;;;;;;;15.07;58.76;101202.00;5026512;28;20037;-60
2023/04/11 08:54:53;;;;;;;4.80;1.83;;;;;;;15.68;56.99;101207.66;5021142;28;20590;-60
2023/04/11 08:57:27;;;;;;;6.65;1.95;;;;;;;15.44;55.34;101213.38;5019508;28;20132;-60
2023/04/11 08:59:55;;;;;;;7.00;1.90;;;;;;;15.05;55.26;101205.03;5017292;28;20030;-59
2023/04/11 09:02:21;;;;;;;6.45;1.80;;;;;;;15.65;54.09;101206.22;5014522;28;20384;-66
2023/04/11 09:04:46;;;;;;;5.22;1.60;;;;;;;16.56;52.14;101209.25;5014090;28;20131;-58
2023/04/11 09:07:12;;;;;;;5.00;1.75;;;;;;;17.51;47.54;101195.63;5030473;28;20021;-60
2023/04/11 09:09:38;;;;;;;4.38;1.70;;;;;;;18.18;45.60;101191.25;5039798;28;20025;-60
2023/04/11 09:12:04;;;;;;;5.57;1.70;;;;;;;17.68;45.72;101201.00;5028538;28;20029;-60
2023/04/11 09:14:30;;;;;;;5.40;1.77;;;;;;;18.36;44.19;101199.09;5024150;28;20056;-56
2023/04/11 09:17:01;;;;;;;4.28;1.50;;;;;;;18.76;42.19;101203.09;5027844;28;20021;-60
2023/04/11 09:19:28;;;;;;;6.60;1.60;;;;;;;19.56;40.61;101200.50;5019175;28;20760;-59
2023/04/11 09:21:59;;;;;;;5.88;1.60;;;;;;;19.62;38.76;101205.00;5020756;28;20220;-59
2023/04/11 09:24:25;;;;;;;5.07;1.35;;;;;;;19.80;38.00;101211.09;5026816;28;20468;-59
2023/04/11 09:27:04;;;;;;;5.65;1.52;;;;;;;18.78;38.33;101220.34;5017913;28;20112;-60
2023/04/11 09:29:44;;;;;;;4.75;1.30;;;;;;;18.77;37.63;101206.72;5026318;28;20068;-59
2023/04/11 09:32:32;;;;;;;5.57;1.60;;;;;;;17.39;41.62;101211.69;5024231;28;20112;-59
2023/04/11 09:35:10;;;;;;;5.30;1.55;;;;;;;18.77;39.66;101224.25;5022824;28;20052;-59
2023/04/11 09:37:52;;;;;;;7.07;1.58;;;;;;;18.45;40.65;101227.22;5021897;28;20088;-57
2023/04/11 09:40:21;;;;;;;5.60;1.45;;;;;;;17.33;40.42;101235.75;5037763;28;20025;-59
2023/04/11 09:42:54;;;;;;;6.38;1.73;;;;;;;17.50;41.58;101224.53;5037629;28;20113;-57
2023/04/11 09:45:22;;;;;;;3.63;1.33;;;;;;;17.45;40.40;101226.44;5018577;28;20033;-56
2023/04/11 09:47:50;;;;;;;5.70;1.95;;;;;;;17.37;42.38;101214.69;5024745;28;20384;-58
2023/04/11 09:50:16;;;;;;;4.07;1.33;;;;;;;19.32;38.14;101222.59;5020942;28;20075;-58
2023/04/11 09:52:42;;;;;;;4.95;1.65;;;;;;;20.35;37.23;101223.94;5028439;28;20415;-58
2023/04/11 09:55:17;;;;;;;6.85;1.90;;;;;;;21.15;36.48;101232.09;5028796;28;20034;-59
2023/04/11 09:57:48;;;;;;;5.30;1.50;;;;;;;21.53;34.34;101235.13;5012887;28;20333;-58
2023/04/11 10:00:17;;;;;;;4.88;1.35;;;;;;;20.91;35.09;101229.19;5036048;28;20329;-59
2023/04/11 10:02:48;;;;;;;5.18;1.50;;;;;;;19.73;36.56;101216.97;5028131;28;20108;-56
2023/04/11 10:05:14;;;;;;;7.05;2.15;;;;;;;17.22;41.21;101242.34;5025883;28;20021;-59
2023/04/11 10:08:02;;;;;;;6.43;1.70;;;;;;;16.04;46.71;101248.59;5021750;28;21032;-59
2023/04/11 10:10:27;;;;;;;6.90;1.55;;;;;;;15.65;47.02;101235.84;5021207;28;20029;-57
2023/04/11 10:12:52;;;;;;;6.32;1.50;;;;;;;16.14;45.44;101230.41;5026468;28;20033;-60
2023/04/11 10:15:18;;;;;;;4.93;1.75;;;;;;;15.56;46.55;101233.50;5021149;28;20061;-59
2023/04/11 10:18:08;;;;;;;6.93;2.17;;;;;;;14.55;49.94;101240.94;5027110;28;20363;-59
2023/04/11 10:20:33;;;;;;;6.43;1.75;;;;;;;13.55;53.07;101252.31;5019028;28;20128;-59
2023/04/11 10:23:00;;;;;;;6.55;1.65;;;;;;;15.21;50.38;101244.03;5027529;28;20040;-58
2023/04/11 10:25:26;;;;;;;6.38;1.77;;;;;;;15.34;47.98;101240.91;5028637;28;20029;-58
2023/04/11 10:27:59;;;;;;;6.10;1.60;;;;;;;14.24;48.62;101243.06;5025597;28;20021;-57
2023/04/11 10:30:45;;;;;;;6.75;1.52;;;;;;;13.38;51.60;101246.66;5027131;28;20594;-58
2023/04/11 10:33:16;;;;;;;6.63;1.60;;;;;;;12.92;53.47;101245.50;5028891;28;20067;-59
2023/04/11 10:35:57;;;;;;;6.57;2.10;;;;;;;13.90;53.04;101241.22;5048472;28;20039;-59
2023/04/11 10:38:47;;;;;;;4.80;1.60;;;;;;;16.67;44.10;101237.09;5036148;28;20046;-59
2023/04/11 10:41:21;;;;;;;5.22;1.75;;;;;;;17.74;42.78;101241.66;5031093;28;20048;-58
2023/04/11 10:43:47;;;;;;;7.10;1.83;;;;;;;17.99;42.39;101237.31;5045043;28;20036;-59
2023/04/11 10:46:24;;;;;;;6.13;2.15;;;;;;;19.08;39.70;101233.44;5037245;28;20025;-57
2023/04/11 10:48:56;;;;;;;6.73;1.70;;;;;;;20.60;37.01;101242.53;5028336;28;20090;-59
2023/04/11 10:51:24;;;;;;;7.13;1.60;;;;;;;20.86;34.13;101240.41;5027077;28;20430;-59
2023/04/11 10:53:51;;;;;;;5.13;1.58;;;;;;;19.57;36.74;101230.06;5028938;28;20033;-62
2023/04/11 10:56:39;;;;;;;6.90;1.70;;;;;;;18.60;38.41;101243.94;5027114;28;20472;-59
2023/04/11 10:59:04;;;;;;;;;;;;;;;18.02;40.90;101240.41;5028423;28;20060;-58
2023/04/11 11:01:29;;;;;;;6.95;1.80;;;;;;;18.89;38.47;101233.16;5026813;28;19953;-60
2023/04/11 11:03:55;;;;;;;5.75;1.60;;;;;;;19.41;37.97;101220.03;5026074;28;20357;-58
2023/04/11 11:06:21;;;;;;;4.07;1.30;;;;;;;19.87;38.22;101245.06;5027415;28;20071;-61
2023/04/11 11:08:46;;;;;;;6.30;1.42;;;;;;;21.13;34.34;101239.06;5027178;28;20029;-60
2023/04/11 11:11:13;;;;;;;6.38;1.55;;;;;;;20.12;33.61;101224.59;5027422;28;20091;-60
2023/04/11 11:13:52;;;;;;;4.28;1.05;;;;;;;19.89;34.93;101237.25;5015584;28;20503;-60
2023/04/11 11:16:23;;;;;;;5.03;1.50;;;;;;;20.14;33.56;101237.16;5007927;28;20072;-60
2023/04/11 11:18:51;;;;;;;3.78;1.17;;;;;;;21.09;31.80;101254.78;5026938;28;20041;-58
2023/04/11 11:21:19;;;;;;;;;;;;;;;21.99;34.61;101243.00;5028580;28;20096;-60